createdAt,value
2023-04-29T00:02:25.069Z,79.10
2023-04-29T00:04:53.124Z,79.10
2023-04-29T00:07:21.274Z,79.20
2023-04-29T00:09:48.761Z,79.10
2023-04-29T00:12:16.396Z,79.00
2023-04-29T00:14:44.092Z,79.00
2023-04-29T00:17:11.710Z,78.90
2023-04-29T00:19:39.355Z,78.70
2023-04-29T00:22:06.866Z,78.60
2023-04-29T00:24:34.352Z,78.80
2023-04-29T00:27:02.855Z,78.70
2023-04-29T00:29:30.374Z,78.60
2023-04-29T00:31:58.057Z,78.70
2023-04-29T00:34:25.896Z,78.80
2023-04-29T00:36:53.448Z,78.90
2023-04-29T00:39:21.051Z,78.70
2023-04-29T00:41:48.712Z,78.50
2023-04-29T00:44:16.247Z,78.80
2023-04-29T00:46:44.006Z,79.00
2023-04-29T00:49:13.947Z,78.70
2023-04-29T00:51:41.695Z,78.50
2023-04-29T00:54:10.164Z,79.00
2023-04-29T00:56:39.930Z,79.00
2023-04-29T00:59:09.601Z,79.20
2023-04-29T01:01:40.811Z,79.20
2023-04-29T01:04:08.780Z,79.10
2023-04-29T01:06:54.712Z,79.00
2023-04-29T01:09:24.959Z,79.20
2023-04-29T01:12:14.825Z,79.30
2023-04-29T01:14:46.993Z,79.50
2023-04-29T01:17:19.971Z,79.40
2023-04-29T01:19:57.289Z,79.30
2023-04-29T01:22:24.873Z,79.10
2023-04-29T01:24:52.483Z,79.20
2023-04-29T01:27:42.891Z,79.00
2023-04-29T01:30:19.882Z,78.80
2023-04-29T01:33:18.770Z,78.80
2023-04-29T01:35:52.647Z,78.90
2023-04-29T01:39:03.170Z,78.70
2023-04-29T01:42:11.857Z,78.60
2023-04-29T01:44:40.956Z,78.30
2023-04-29T01:47:12.469Z,78.50
2023-04-29T01:49:40.225Z,79.40
2023-04-29T01:52:07.751Z,79.30
2023-04-29T01:54:38.666Z,79.20
2023-04-29T01:57:06.179Z,79.30
2023-04-29T01:59:33.751Z,79.00
2023-04-29T02:02:01.256Z,79.30
2023-04-29T02:04:28.984Z,79.10
2023-04-29T02:06:56.565Z,79.10
2023-04-29T02:09:24.031Z,78.90
2023-04-29T02:11:51.522Z,79.10
2023-04-29T02:14:18.996Z,79.50
2023-04-29T02:16:46.552Z,79.00
2023-04-29T02:19:14.261Z,79.10
2023-04-29T02:21:41.785Z,79.10
2023-04-29T02:24:09.398Z,78.90
2023-04-29T02:26:38.470Z,78.80
2023-04-29T02:29:06.231Z,78.90
2023-04-29T02:31:33.732Z,78.70
2023-04-29T02:34:01.337Z,79.00
2023-04-29T02:36:28.920Z,79.00
2023-04-29T02:38:56.598Z,78.90
2023-04-29T02:41:26.009Z,78.70
2023-04-29T02:43:53.557Z,78.80
2023-04-29T02:46:21.208Z,78.80
2023-04-29T02:48:48.856Z,78.80
2023-04-29T02:51:16.526Z,78.90
2023-04-29T02:53:46.783Z,78.70
2023-04-29T02:56:14.502Z,78.60
2023-04-29T02:58:42.582Z,78.80
2023-04-29T03:01:13.271Z,78.90
2023-04-29T03:03:41.152Z,79.50
2023-04-29T03:06:08.786Z,78.80
2023-04-29T03:08:39.265Z,78.70
2023-04-29T03:11:07.022Z,78.70
2023-04-29T03:13:34.678Z,78.80
2023-04-29T03:16:02.426Z,78.80
2023-04-29T03:18:30.150Z,78.80
2023-04-29T03:20:57.623Z,79.00
2023-04-29T03:23:25.250Z,78.90
2023-04-29T03:25:53.360Z,79.00
2023-04-29T03:28:21.022Z,78.90
2023-04-29T03:30:48.616Z,79.00
2023-04-29T03:33:16.072Z,78.80
2023-04-29T03:35:44.200Z,78.70
2023-04-29T03:38:14.874Z,78.70
2023-04-29T03:40:42.395Z,78.80
2023-04-29T03:43:09.980Z,78.90
2023-04-29T03:45:37.717Z,79.00
2023-04-29T03:48:05.713Z,79.00
2023-04-29T03:50:33.285Z,78.90
2023-04-29T03:53:01.038Z,79.00
2023-04-29T03:55:28.679Z,79.10
2023-04-29T03:57:56.848Z,79.00
2023-04-29T04:00:26.731Z,79.20
2023-04-29T04:02:54.558Z,79.10
2023-04-29T04:05:25.427Z,79.10
2023-04-29T04:07:53.440Z,79.10
2023-04-29T04:10:21.038Z,79.30
2023-04-29T04:12:48.616Z,79.30
2023-04-29T04:15:17.345Z,79.20
2023-04-29T04:17:44.875Z,79.30
2023-04-29T04:20:18.232Z,79.50
2023-04-29T04:22:45.823Z,79.40
2023-04-29T04:25:13.282Z,79.40
2023-04-29T04:27:41.422Z,79.40
2023-04-29T04:30:09.507Z,79.30
2023-04-29T04:32:37.058Z,79.70
2023-04-29T04:35:04.854Z,79.70
2023-04-29T04:37:32.298Z,79.40
2023-04-29T04:39:59.802Z,79.40
2023-04-29T04:42:27.323Z,79.50
2023-04-29T04:44:55.230Z,79.40
2023-04-29T04:47:22.794Z,79.30
2023-04-29T04:49:50.367Z,79.50
2023-04-29T04:52:21.596Z,79.50
2023-04-29T04:54:49.159Z,79.50
2023-04-29T04:57:16.839Z,79.50
2023-04-29T04:59:44.581Z,79.50
2023-04-29T05:02:12.316Z,79.50
2023-04-29T05:04:39.880Z,79.50
2023-04-29T05:07:07.390Z,79.60
2023-04-29T05:09:35.108Z,79.70
2023-04-29T05:12:02.770Z,79.60
2023-04-29T05:14:30.319Z,79.60
2023-04-29T05:17:01.200Z,79.60
2023-04-29T05:19:28.952Z,79.70
2023-04-29T05:21:56.595Z,79.80
2023-04-29T05:24:24.281Z,79.80
2023-04-29T05:26:52.238Z,79.80
2023-04-29T05:29:19.929Z,79.70
2023-04-29T05:31:47.864Z,79.70
2023-04-29T05:34:15.743Z,79.50
2023-04-29T05:36:43.222Z,79.40
2023-04-29T05:39:10.862Z,79.50
2023-04-29T05:41:38.348Z,79.40
2023-04-29T05:44:05.991Z,79.50
2023-04-29T05:46:33.555Z,79.60
2023-04-29T05:49:01.232Z,79.50
2023-04-29T05:51:28.886Z,79.50
2023-04-29T05:53:56.829Z,79.50
2023-04-29T05:56:24.610Z,79.60
2023-04-29T05:58:52.458Z,79.50
2023-04-29T06:01:19.966Z,79.70
2023-04-29T06:03:47.792Z,79.60
2023-04-29T06:06:15.893Z,79.60
2023-04-29T06:08:43.422Z,79.60
2023-04-29T06:11:10.973Z,79.60
2023-04-29T06:13:38.500Z,79.70
2023-04-29T06:16:06.334Z,79.70
2023-04-29T06:18:34.077Z,79.70
2023-04-29T06:21:01.624Z,79.70
2023-04-29T06:23:29.205Z,79.80
2023-04-29T06:25:56.739Z,79.70
2023-04-29T06:28:24.394Z,79.80
2023-04-29T06:30:55.044Z,79.80
2023-04-29T06:33:22.718Z,79.70
2023-04-29T06:35:50.301Z,79.90
2023-04-29T06:38:17.921Z,80.00
2023-04-29T06:40:45.481Z,79.90
2023-04-29T06:43:13.252Z,80.50
2023-04-29T06:45:40.781Z,79.90
2023-04-29T06:48:08.365Z,79.90
2023-04-29T06:50:36.651Z,80.00
2023-04-29T06:53:04.394Z,80.00
2023-04-29T06:55:31.999Z,80.10
2023-04-29T06:57:59.762Z,80.10
2023-04-29T07:00:27.343Z,80.10
2023-04-29T07:02:55.726Z,80.20
2023-04-29T07:05:23.623Z,80.20
2023-04-29T07:07:51.180Z,80.10
2023-04-29T07:10:18.889Z,80.20
2023-04-29T07:12:46.487Z,80.20
2023-04-29T07:15:14.917Z,80.20
2023-04-29T07:17:42.504Z,80.30
2023-04-29T07:20:10.514Z,80.20
2023-04-29T07:22:38.117Z,80.20
2023-04-29T07:25:06.250Z,80.40
2023-04-29T07:27:35.379Z,80.50
2023-04-29T07:30:03.594Z,80.40
2023-04-29T07:32:34.199Z,80.50
2023-04-29T07:35:01.926Z,80.50
2023-04-29T07:37:29.453Z,80.40
2023-04-29T07:39:56.942Z,80.40
2023-04-29T07:42:24.448Z,80.40
2023-04-29T07:44:52.158Z,80.50
2023-04-29T07:47:19.753Z,80.50
2023-04-29T07:49:47.284Z,80.80
2023-04-29T07:52:14.763Z,80.50
2023-04-29T07:54:42.235Z,80.70
2023-04-29T07:57:09.704Z,80.70
2023-04-29T07:59:37.257Z,80.70
2023-04-29T08:02:04.720Z,80.90
2023-04-29T08:04:32.443Z,80.80
2023-04-29T08:07:00.231Z,81.00
2023-04-29T08:09:27.681Z,80.10
2023-04-29T08:11:55.184Z,80.10
2023-04-29T08:14:22.638Z,80.20
2023-04-29T08:16:50.288Z,80.20
2023-04-29T08:19:17.733Z,80.30
2023-04-29T08:21:45.250Z,80.40
2023-04-29T08:24:12.753Z,80.50
2023-04-29T08:26:43.386Z,80.50
2023-04-29T08:29:10.909Z,80.60
2023-04-29T08:31:38.490Z,80.60
2023-04-29T08:34:06.104Z,80.90
2023-04-29T08:36:34.038Z,80.70
2023-04-29T08:39:01.811Z,80.90
2023-04-29T08:41:29.614Z,80.90
2023-04-29T08:43:57.214Z,81.00
2023-04-29T08:46:28.681Z,80.80
2023-04-29T08:48:59.928Z,80.40
2023-04-29T08:51:28.398Z,80.40
2023-04-29T08:53:57.228Z,80.60
2023-04-29T08:56:26.175Z,80.70
2023-04-29T08:58:58.665Z,80.70
2023-04-29T09:01:30.342Z,80.60
2023-04-29T09:04:24.110Z,80.70
2023-04-29T09:06:53.070Z,80.70
2023-04-29T09:09:21.325Z,80.70
2023-04-29T09:11:48.824Z,80.80
2023-04-29T09:14:16.809Z,80.80
2023-04-29T09:16:47.700Z,80.60
2023-04-29T09:19:35.691Z,80.80
2023-04-29T09:22:04.879Z,81.00
2023-04-29T09:24:33.040Z,79.20
2023-04-29T09:27:01.882Z,77.80
2023-04-29T09:29:29.869Z,77.30
2023-04-29T09:31:59.053Z,75.80
2023-04-29T09:34:38.097Z,76.60
2023-04-29T09:37:08.095Z,76.00
2023-04-29T09:39:41.657Z,75.80
2023-04-29T09:42:09.841Z,75.50
2023-04-29T09:44:37.474Z,76.50
2023-04-29T09:47:07.132Z,76.30
2023-04-29T09:49:40.025Z,75.10
2023-04-29T09:52:10.162Z,75.10
2023-04-29T09:54:39.351Z,73.60
2023-04-29T09:57:09.377Z,73.90
2023-04-29T09:59:39.272Z,73.00
2023-04-29T10:02:20.328Z,71.60
2023-04-29T10:04:52.754Z,72.70
2023-04-29T10:07:20.587Z,72.70
2023-04-29T10:09:49.215Z,71.00
2023-04-29T10:12:19.216Z,70.10
2023-04-29T10:14:58.925Z,71.50
2023-04-29T10:17:47.726Z,73.20
2023-04-29T10:20:19.963Z,72.30
2023-04-29T10:22:49.477Z,72.90
2023-04-29T10:25:19.376Z,73.90
2023-04-29T10:27:49.164Z,74.60
2023-04-29T10:30:20.904Z,75.20
2023-04-29T10:32:52.056Z,75.70
2023-04-29T10:35:23.946Z,75.80
2023-04-29T10:37:53.210Z,76.10
2023-04-29T10:40:49.225Z,76.10
2023-04-29T10:43:16.913Z,76.20
2023-04-29T10:45:44.457Z,76.50
2023-04-29T10:48:13.549Z,76.20
2023-04-29T10:50:53.123Z,76.30
2023-04-29T10:53:21.385Z,76.60
2023-04-29T10:55:54.474Z,75.70
2023-04-29T10:58:39.405Z,76.30
2023-04-29T11:01:11.541Z,76.60
2023-04-29T11:03:56.032Z,77.00
2023-04-29T11:06:25.478Z,76.90
2023-04-29T11:09:24.688Z,77.10
2023-04-29T11:12:08.395Z,77.10
2023-04-29T11:14:51.625Z,77.30
2023-04-29T11:17:20.938Z,77.30
2023-04-29T11:19:52.265Z,77.30
2023-04-29T11:22:21.471Z,77.30
2023-04-29T11:24:56.833Z,77.30
2023-04-29T11:27:55.764Z,77.20
2023-04-29T11:30:23.597Z,77.30
2023-04-29T11:32:52.282Z,77.30
2023-04-29T11:35:20.718Z,77.30
2023-04-29T11:37:48.302Z,77.30
2023-04-29T11:40:17.283Z,77.20
2023-04-29T11:42:47.121Z,77.20
2023-04-29T11:45:15.873Z,77.30
2023-04-29T11:47:46.322Z,77.20
2023-04-29T11:50:17.172Z,77.30
2023-04-29T11:52:46.491Z,77.40
2023-04-29T11:55:14.949Z,77.50
2023-04-29T11:57:45.408Z,77.60
2023-04-29T12:00:14.433Z,77.20
2023-04-29T12:02:49.049Z,77.20
2023-04-29T12:05:17.777Z,77.50
2023-04-29T12:07:45.668Z,77.60
2023-04-29T12:10:13.757Z,77.80
2023-04-29T12:12:44.114Z,77.70
2023-04-29T12:15:12.965Z,77.10
2023-04-29T12:17:41.174Z,77.30
2023-04-29T12:20:12.187Z,77.50
2023-04-29T12:22:39.976Z,77.70
2023-04-29T12:25:08.260Z,77.80
2023-04-29T12:27:37.278Z,77.20
2023-04-29T12:30:09.954Z,77.90
2023-04-29T12:32:38.715Z,77.20
2023-04-29T12:35:07.670Z,77.30
2023-04-29T12:37:35.622Z,77.40
2023-04-29T12:40:03.341Z,77.40
2023-04-29T12:42:36.950Z,77.60
2023-04-29T12:45:06.904Z,77.50
2023-04-29T12:47:37.744Z,77.30
2023-04-29T12:50:07.575Z,77.50
2023-04-29T12:52:36.717Z,77.50
2023-04-29T12:55:05.117Z,77.40
2023-04-29T12:57:35.645Z,77.30
2023-04-29T13:00:04.082Z,77.50
2023-04-29T13:02:31.697Z,77.30
2023-04-29T13:04:59.624Z,77.40
2023-04-29T13:07:27.445Z,77.50
2023-04-29T13:09:55.654Z,77.20
2023-04-29T13:12:23.122Z,77.40
2023-04-29T13:14:51.538Z,77.40
2023-04-29T13:17:19.166Z,77.20
2023-04-29T13:19:51.596Z,77.30
2023-04-29T13:22:19.867Z,77.30
2023-04-29T13:24:47.676Z,77.20
2023-04-29T13:27:15.369Z,76.90
2023-04-29T13:29:42.957Z,77.00
2023-04-29T13:32:10.578Z,76.80
2023-04-29T13:34:43.518Z,76.80
2023-04-29T13:37:11.995Z,76.80
2023-04-29T13:39:39.806Z,70.80
2023-04-29T13:42:08.750Z,73.90
2023-04-29T13:44:49.756Z,75.00
2023-04-29T13:47:25.599Z,75.10
2023-04-29T13:50:22.709Z,74.70
2023-04-29T14:00:31.914Z,74.70
2023-04-29T14:05:34.004Z,75.40
2023-04-29T14:08:01.743Z,69.10
2023-04-29T14:10:29.729Z,66.90
2023-04-29T14:12:57.098Z,70.00
2023-04-29T14:15:24.414Z,71.10
2023-04-29T14:17:52.021Z,72.60
2023-04-29T14:20:19.779Z,72.20
2023-04-29T14:22:47.050Z,72.80
2023-04-29T14:25:14.482Z,72.50
2023-04-29T14:27:42.304Z,72.80
2023-04-29T14:30:09.842Z,72.60
2023-04-29T14:32:37.164Z,72.90
2023-04-29T14:35:04.627Z,73.10
2023-04-29T14:37:31.931Z,72.10
2023-04-29T14:39:59.251Z,72.20
2023-04-29T14:42:26.662Z,73.60
2023-04-29T14:44:54.752Z,73.20
2023-04-29T14:47:22.774Z,73.30
2023-04-29T14:49:50.169Z,73.60
2023-04-29T14:52:17.509Z,73.00
2023-04-29T14:54:44.980Z,66.30
2023-04-29T14:57:12.245Z,64.30
2023-04-29T14:59:39.565Z,67.70
2023-04-29T15:02:07.168Z,70.30
2023-04-29T15:04:34.774Z,71.50
2023-04-29T15:07:02.313Z,71.30
2023-04-29T15:09:29.587Z,72.00
2023-04-29T15:11:56.958Z,72.20
2023-04-29T15:14:24.227Z,72.60
2023-04-29T15:16:51.803Z,72.40
2023-04-29T15:19:19.611Z,73.00
2023-04-29T15:21:46.920Z,72.30
2023-04-29T15:24:14.183Z,72.50
2023-04-29T15:26:41.610Z,72.50
2023-04-29T15:29:08.931Z,72.60
2023-04-29T15:31:36.394Z,72.70
2023-04-29T15:34:03.741Z,72.20
2023-04-29T15:36:32.891Z,71.70
2023-04-29T15:39:00.333Z,72.10
2023-04-29T15:41:27.891Z,72.60
2023-04-29T15:43:56.736Z,72.30
2023-04-29T15:46:24.162Z,72.20
2023-04-29T15:48:51.725Z,72.30
2023-04-29T15:51:19.098Z,72.20
2023-04-29T15:53:46.418Z,72.40
2023-04-29T15:56:13.776Z,72.10
2023-04-29T15:58:41.140Z,72.10
2023-04-29T16:01:08.700Z,72.10
2023-04-29T16:03:36.126Z,71.80
2023-04-29T16:06:03.608Z,67.40
2023-04-29T16:08:30.939Z,64.50
2023-04-29T16:10:58.226Z,64.10
2023-04-29T16:13:25.474Z,63.20
2023-04-29T16:15:52.788Z,61.30
2023-04-29T16:18:20.212Z,62.00
2023-04-29T16:20:47.624Z,62.40
2023-04-29T16:23:14.960Z,61.00
2023-04-29T16:25:42.371Z,62.40
2023-04-29T16:28:09.722Z,62.20
2023-04-29T16:30:37.028Z,61.20
2023-04-29T16:33:04.545Z,61.90
2023-04-29T16:35:31.926Z,62.50
2023-04-29T16:37:59.290Z,63.40
2023-04-29T16:40:26.752Z,63.30
2023-04-29T16:42:54.811Z,63.60
2023-04-29T16:45:23.874Z,62.50
2023-04-29T16:47:51.701Z,61.80
2023-04-29T16:50:19.426Z,62.00
2023-04-29T16:52:46.702Z,61.80
2023-04-29T16:55:14.077Z,61.50
2023-04-29T16:57:41.598Z,61.50
2023-04-29T17:00:12.405Z,61.60
2023-04-29T17:02:47.910Z,61.40
2023-04-29T17:05:16.974Z,62.20
2023-04-29T17:07:44.546Z,61.80
2023-04-29T17:10:11.968Z,62.70
2023-04-29T17:12:39.461Z,63.90
2023-04-29T17:15:07.808Z,64.00
2023-04-29T17:17:35.321Z,64.30
2023-04-29T17:20:02.754Z,64.40
2023-04-29T17:22:30.057Z,63.70
2023-04-29T17:24:57.449Z,63.90
2023-04-29T17:27:24.749Z,64.40
2023-04-29T17:29:52.887Z,64.30
2023-04-29T17:32:28.516Z,64.20
2023-04-29T17:34:56.383Z,64.20
2023-04-29T17:37:25.946Z,64.60
2023-04-29T17:39:53.990Z,64.50
2023-04-29T17:42:21.794Z,64.50
2023-04-29T17:44:49.296Z,64.50
2023-04-29T17:47:17.634Z,64.50
2023-04-29T17:49:45.268Z,64.60
2023-04-29T17:52:13.401Z,64.50
2023-04-29T17:54:41.412Z,64.70
2023-04-29T17:57:09.288Z,64.40
2023-04-29T17:59:36.614Z,64.30
2023-04-29T18:02:04.533Z,63.70
2023-04-29T18:04:31.815Z,63.80
2023-04-29T18:06:59.094Z,59.50
2023-04-29T18:09:26.848Z,59.20
2023-04-29T18:11:54.284Z,60.10
2023-04-29T18:14:21.796Z,61.30
2023-04-29T18:16:49.167Z,62.30
2023-04-29T18:19:16.736Z,62.50
2023-04-29T18:21:47.255Z,62.80
2023-04-29T18:24:14.717Z,63.00
2023-04-29T18:26:42.336Z,63.00
2023-04-29T18:29:09.988Z,63.20
2023-04-29T18:31:37.894Z,63.40
2023-04-29T18:34:08.342Z,63.20
2023-04-29T18:36:36.066Z,63.50
2023-04-29T18:39:03.676Z,63.60
2023-04-29T18:41:31.291Z,63.50
2023-04-29T18:43:59.018Z,63.30
2023-04-29T18:46:26.655Z,64.00
2023-04-29T18:48:54.330Z,63.50
2023-04-29T18:51:22.949Z,63.60
2023-04-29T18:53:50.639Z,64.00
2023-04-29T18:56:18.481Z,63.80
2023-04-29T18:58:46.035Z,63.70
2023-04-29T19:01:13.619Z,64.20
2023-04-29T19:03:41.456Z,64.30
2023-04-29T19:06:09.096Z,64.10
2023-04-29T19:08:36.763Z,64.10
2023-04-29T19:11:04.438Z,64.00
2023-04-29T19:13:31.897Z,64.10
2023-04-29T19:15:59.730Z,63.90
2023-04-29T19:18:27.380Z,64.20
2023-04-29T19:20:56.343Z,64.30
2023-04-29T19:23:23.957Z,64.50
2023-04-29T19:25:51.429Z,63.90
2023-04-29T19:28:19.562Z,64.20
2023-04-29T19:30:47.268Z,64.20
2023-04-29T19:33:15.019Z,64.00
2023-04-29T19:35:43.002Z,64.10
2023-04-29T19:38:11.271Z,64.10
2023-04-29T19:40:38.774Z,64.70
2023-04-29T19:43:06.335Z,63.90
2023-04-29T19:45:33.874Z,64.20
2023-04-29T19:48:02.462Z,64.90
2023-04-29T19:50:30.294Z,64.30
2023-04-29T19:52:58.659Z,64.10
2023-04-29T19:55:26.618Z,64.20
2023-04-29T19:57:54.194Z,64.10
2023-04-29T20:00:21.907Z,64.20
2023-04-29T20:02:52.273Z,64.10
2023-04-29T20:05:20.165Z,64.20
2023-04-29T20:07:47.729Z,64.30
2023-04-29T20:10:15.330Z,64.20
2023-04-29T20:12:42.918Z,64.10
2023-04-29T20:15:11.745Z,64.10
2023-04-29T20:17:39.705Z,64.30
2023-04-29T20:20:09.325Z,64.30
2023-04-29T20:22:37.210Z,64.50
2023-04-29T20:25:05.395Z,64.30
2023-04-29T20:27:33.026Z,64.40
2023-04-29T20:30:01.100Z,64.20
2023-04-29T20:32:28.737Z,64.50
2023-04-29T20:34:56.342Z,64.40
2023-04-29T20:37:23.900Z,64.50
2023-04-29T20:39:51.647Z,64.30
2023-04-29T20:42:19.240Z,64.40
2023-04-29T20:44:46.973Z,64.30
2023-04-29T20:47:14.483Z,64.50
2023-04-29T20:49:42.897Z,64.30
2023-04-29T20:52:10.872Z,64.10
2023-04-29T20:54:39.344Z,64.40
2023-04-29T20:57:07.098Z,64.10
2023-04-29T20:59:34.906Z,64.30
2023-04-29T21:02:02.632Z,64.30
2023-04-29T21:04:30.277Z,64.40
2023-04-29T21:06:58.088Z,64.50
2023-04-29T21:09:25.859Z,64.50
2023-04-29T21:11:53.460Z,64.40
2023-04-29T21:14:21.046Z,64.30
2023-04-29T21:16:48.628Z,64.40
2023-04-29T21:19:16.132Z,64.50
2023-04-29T21:21:44.098Z,64.30
2023-04-29T21:24:11.695Z,64.30
2023-04-29T21:26:39.199Z,64.40
2023-04-29T21:29:06.946Z,64.50
2023-04-29T21:31:34.711Z,64.40
2023-04-29T21:34:02.426Z,64.50
2023-04-29T21:36:30.017Z,64.50
2023-04-29T21:38:57.574Z,64.50
2023-04-29T21:41:31.388Z,64.30
2023-04-29T21:44:00.843Z,64.40
2023-04-29T21:46:29.301Z,64.40
2023-04-29T21:48:58.791Z,64.40
2023-04-29T21:51:26.724Z,64.30
2023-04-29T21:53:54.252Z,64.40
2023-04-29T21:56:24.820Z,64.50
2023-04-29T21:58:55.348Z,64.50
2023-04-29T22:01:48.955Z,64.20
2023-04-29T22:04:17.433Z,64.30
2023-04-29T22:06:45.402Z,64.30
2023-04-29T22:09:13.387Z,64.20
2023-04-29T22:11:41.089Z,64.40
2023-04-29T22:14:08.850Z,64.50
2023-04-29T22:16:36.449Z,64.40
2023-04-29T22:19:05.249Z,64.40
2023-04-29T22:21:33.385Z,64.30
2023-04-29T22:24:00.920Z,64.20
2023-04-29T22:26:28.435Z,64.40
2023-04-29T22:28:59.080Z,64.30
2023-04-29T22:31:27.264Z,64.30
2023-04-29T22:33:54.885Z,64.30
2023-04-29T22:36:22.548Z,64.40
2023-04-29T22:38:50.084Z,64.20
2023-04-29T22:41:17.864Z,64.30
2023-04-29T22:43:45.681Z,64.90
2023-04-29T22:46:13.366Z,64.30
2023-04-29T22:48:42.601Z,64.20
2023-04-29T22:51:10.217Z,64.20
2023-04-29T22:53:37.725Z,64.20
2023-04-29T22:56:05.716Z,64.20
2023-04-29T22:58:34.149Z,64.30
2023-04-29T23:01:02.242Z,64.20
2023-04-29T23:03:29.776Z,64.30
2023-04-29T23:06:01.290Z,64.40
2023-04-29T23:08:29.098Z,64.30
2023-04-29T23:10:56.613Z,64.20
2023-04-29T23:13:24.352Z,64.20
2023-04-29T23:15:52.569Z,64.00
2023-04-29T23:18:20.066Z,64.20
2023-04-29T23:20:48.183Z,64.20
2023-04-29T23:23:15.711Z,64.20
2023-04-29T23:25:43.837Z,64.10
2023-04-29T23:28:11.451Z,64.10
2023-04-29T23:30:39.033Z,64.20
2023-04-29T23:33:06.857Z,64.20
2023-04-29T23:35:34.410Z,64.10
2023-04-29T23:38:02.012Z,64.10
2023-04-29T23:40:31.129Z,65.00
2023-04-29T23:42:59.364Z,64.20
2023-04-29T23:45:27.391Z,65.20
2023-04-29T23:47:54.921Z,65.20
2023-04-29T23:50:22.965Z,65.20
2023-04-29T23:52:50.420Z,65.30
2023-04-29T23:55:17.975Z,65.10
2023-04-29T23:57:45.587Z,65.10
